sensor_id;sensor_type;location;lat;lon;timestamp;pressure;altitude;pressure_sealevel;temperature
15453;BMP280;7827;53.594;9.938;2022-10-31T00:01:29;152014.84;;;14.71
15453;BMP280;7827;53.594;9.938;2022-10-31T00:03:59;152014.84;;;14.71
15453;BMP280;7827;53.594;9.938;2022-10-31T00:06:28;152003.53;;;14.66
15453;BMP280;7827;53.594;9.938;2022-10-31T00:08:59;152007.28;;;14.68
15453;BMP280;7827;53.594;9.938;2022-10-31T00:11:28;152013.53;;;14.70
15453;BMP280;7827;53.594;9.938;2022-10-31T00:13:57;152026.13;;;14.75
15453;BMP280;7827;53.594;9.938;2022-10-31T00:16:27;152031.16;;;14.77
15453;BMP280;7827;53.594;9.938;2022-10-31T00:18:59;152034.91;;;14.79
15453;BMP280;7827;53.594;9.938;2022-10-31T00:21:29;152041.22;;;14.81
15453;BMP280;7827;53.594;9.938;2022-10-31T00:23:58;152042.44;;;14.82
15453;BMP280;7827;53.594;9.938;2022-10-31T00:26:29;152043.69;;;14.82
15453;BMP280;7827;53.594;9.938;2022-10-31T00:28:58;152047.47;;;14.84
15453;BMP280;7827;53.594;9.938;2022-10-31T00:31:27;152034.91;;;14.79
15453;BMP280;7827;53.594;9.938;2022-10-31T00:33:57;152023.59;;;14.74
15453;BMP280;7827;53.594;9.938;2022-10-31T00:36:27;152011.06;;;14.69
15453;BMP280;7827;53.594;9.938;2022-10-31T00:38:57;152006.00;;;14.67
15453;BMP280;7827;53.594;9.938;2022-10-31T00:41:26;151988.44;;;14.61
15453;BMP280;7827;53.594;9.938;2022-10-31T00:43:54;151994.69;;;14.63
15453;BMP280;7827;53.594;9.938;2022-10-31T00:46:23;152001.00;;;14.65
15453;BMP280;7827;53.594;9.938;2022-10-31T00:48:51;152008.53;;;14.68
15453;BMP280;7827;53.594;9.938;2022-10-31T00:51:20;152012.31;;;14.70
15453;BMP280;7827;53.594;9.938;2022-10-31T00:53:49;152003.53;;;14.66
15453;BMP280;7827;53.594;9.938;2022-10-31T00:56:17;151994.69;;;14.63
15453;BMP280;7827;53.594;9.938;2022-10-31T00:58:45;151992.22;;;14.62
15453;BMP280;7827;53.594;9.938;2022-10-31T01:01:14;151997.22;;;14.64
15453;BMP280;7827;53.594;9.938;2022-10-31T01:03:43;151996.00;;;14.63
15453;BMP280;7827;53.594;9.938;2022-10-31T01:06:13;151992.22;;;14.62
15453;BMP280;7827;53.594;9.938;2022-10-31T01:08:42;151994.69;;;14.63
15453;BMP280;7827;53.594;9.938;2022-10-31T01:11:16;151998.47;;;14.64
15453;BMP280;7827;53.594;9.938;2022-10-31T01:13:46;151992.22;;;14.62
15453;BMP280;7827;53.594;9.938;2022-10-31T01:16:17;151990.94;;;14.61
15453;BMP280;7827;53.594;9.938;2022-10-31T01:18:46;151989.69;;;14.61
15453;BMP280;7827;53.594;9.938;2022-10-31T01:21:17;151990.94;;;14.61
15453;BMP280;7827;53.594;9.938;2022-10-31T01:23:48;151972.09;;;14.54
15453;BMP280;7827;53.594;9.938;2022-10-31T01:26:21;151993.47;;;14.62
15453;BMP280;7827;53.594;9.938;2022-10-31T01:28:53;151982.16;;;14.58
15453;BMP280;7827;53.594;9.938;2022-10-31T01:31:25;151988.44;;;14.61
15453;BMP280;7827;53.594;9.938;2022-10-31T01:33:55;152011.06;;;14.69
15453;BMP280;7827;53.594;9.938;2022-10-31T01:36:25;152008.53;;;14.68
15453;BMP280;7827;53.594;9.938;2022-10-31T01:39:04;152001.00;;;14.65
15453;BMP280;7827;53.594;9.938;2022-10-31T01:41:37;152001.00;;;14.65
15453;BMP280;7827;53.594;9.938;2022-10-31T01:44:48;152002.22;;;14.66
15453;BMP280;7827;53.594;9.938;2022-10-31T01:47:24;151996.00;;;14.63
15453;BMP280;7827;53.594;9.938;2022-10-31T01:49:59;151993.47;;;14.62
15453;BMP280;7827;53.594;9.938;2022-10-31T01:52:33;151998.47;;;14.64
15453;BMP280;7827;53.594;9.938;2022-10-31T01:55:09;151988.44;;;14.61
15453;BMP280;7827;53.594;9.938;2022-10-31T01:57:44;151985.91;;;14.60
15453;BMP280;7827;53.594;9.938;2022-10-31T02:00:19;151980.91;;;14.58
15453;BMP280;7827;53.594;9.938;2022-10-31T02:02:49;151985.91;;;14.60
15453;BMP280;7827;53.594;9.938;2022-10-31T02:05:22;151985.91;;;14.60
15453;BMP280;7827;53.594;9.938;2022-10-31T02:07:57;151988.44;;;14.61
15453;BMP280;7827;53.594;9.938;2022-10-31T02:10:31;151985.91;;;14.60
15453;BMP280;7827;53.594;9.938;2022-10-31T02:13:04;151988.44;;;14.61
15453;BMP280;7827;53.594;9.938;2022-10-31T02:15:38;151988.44;;;14.61
15453;BMP280;7827;53.594;9.938;2022-10-31T02:18:08;151989.69;;;14.61
15453;BMP280;7827;53.594;9.938;2022-10-31T02:20:49;151993.47;;;14.62
15453;BMP280;7827;53.594;9.938;2022-10-31T02:24:05;151983.38;;;14.59
15453;BMP280;7827;53.594;9.938;2022-10-31T02:27:21;151980.91;;;14.58
15453;BMP280;7827;53.594;9.938;2022-10-31T02:30:11;151973.38;;;14.55
15453;BMP280;7827;53.594;9.938;2022-10-31T02:32:55;151968.31;;;14.53
15453;BMP280;7827;53.594;9.938;2022-10-31T02:35:47;151975.84;;;14.56
15453;BMP280;7827;53.594;9.938;2022-10-31T02:38:38;151963.31;;;14.51
15453;BMP280;7827;53.594;9.938;2022-10-31T02:41:24;151948.22;;;14.45
15453;BMP280;7827;53.594;9.938;2022-10-31T02:44:08;151948.22;;;14.45
15453;BMP280;7827;53.594;9.938;2022-10-31T02:46:44;151950.72;;;14.46
15453;BMP280;7827;53.594;9.938;2022-10-31T02:49:28;151955.78;;;14.48
15453;BMP280;7827;53.594;9.938;2022-10-31T02:51:57;151945.69;;;14.44
15453;BMP280;7827;53.594;9.938;2022-10-31T02:54:28;151933.16;;;14.39
15453;BMP280;7827;53.594;9.938;2022-10-31T02:57:03;151924.34;;;14.35
15453;BMP280;7827;53.594;9.938;2022-10-31T02:59:35;151923.09;;;14.35
15453;BMP280;7827;53.594;9.938;2022-10-31T03:02:51;151916.81;;;14.32
15453;BMP280;7827;53.594;9.938;2022-10-31T03:05:45;151909.25;;;14.29
15453;BMP280;7827;53.594;9.938;2022-10-31T03:08:24;151910.56;;;14.30
15453;BMP280;7827;53.594;9.938;2022-10-31T03:10:59;151905.50;;;14.28
15453;BMP280;7827;53.594;9.938;2022-10-31T03:13:35;151896.72;;;14.24
15453;BMP280;7827;53.594;9.938;2022-10-31T03:16:14;151900.47;;;14.26
15453;BMP280;7827;53.594;9.938;2022-10-31T03:18:50;151897.97;;;14.25
15453;BMP280;7827;53.594;9.938;2022-10-31T03:21:27;151895.47;;;14.24
15453;BMP280;7827;53.594;9.938;2022-10-31T03:24:00;151892.94;;;14.23
15453;BMP280;7827;53.594;9.938;2022-10-31T03:26:30;151895.47;;;14.24
15453;BMP280;7827;53.594;9.938;2022-10-31T03:29:03;151891.72;;;14.22
15453;BMP280;7827;53.594;9.938;2022-10-31T03:31:39;151880.41;;;14.18
15453;BMP280;7827;53.594;9.938;2022-10-31T03:34:11;151887.94;;;14.21
15453;BMP280;7827;53.594;9.938;2022-10-31T03:36:43;151880.41;;;14.18
15453;BMP280;7827;53.594;9.938;2022-10-31T03:39:15;151867.81;;;14.13
15453;BMP280;7827;53.594;9.938;2022-10-31T03:41:51;151870.34;;;14.14
15453;BMP280;7827;53.594;9.938;2022-10-31T03:44:23;151861.53;;;14.11
15453;BMP280;7827;53.594;9.938;2022-10-31T03:46:58;151869.09;;;14.13
15453;BMP280;7827;53.594;9.938;2022-10-31T03:49:28;151879.13;;;14.17
15453;BMP280;7827;53.594;9.938;2022-10-31T03:52:06;151875.34;;;14.16
15453;BMP280;7827;53.594;9.938;2022-10-31T03:54:43;151866.56;;;14.13
15453;BMP280;7827;53.594;9.938;2022-10-31T03:57:17;151865.34;;;14.12
15453;BMP280;7827;53.594;9.938;2022-10-31T03:59:53;151865.34;;;14.12
15453;BMP280;7827;53.594;9.938;2022-10-31T04:02:31;151860.28;;;14.10
15453;BMP280;7827;53.594;9.938;2022-10-31T04:05:02;151848.97;;;14.06
15453;BMP280;7827;53.594;9.938;2022-10-31T04:07:37;151845.16;;;14.04
15453;BMP280;7827;53.594;9.938;2022-10-31T04:10:11;151850.22;;;14.06
15453;BMP280;7827;53.594;9.938;2022-10-31T04:12:54;151837.63;;;14.01
15453;BMP280;7827;53.594;9.938;2022-10-31T04:15:28;151848.97;;;14.06
15453;BMP280;7827;53.594;9.938;2022-10-31T04:17:59;151841.41;;;14.03
15453;BMP280;7827;53.594;9.938;2022-10-31T04:20:31;151837.63;;;14.01
15453;BMP280;7827;53.594;9.938;2022-10-31T04:23:01;151843.94;;;14.04
15453;BMP280;7827;53.594;9.938;2022-10-31T04:25:30;151842.63;;;14.03
15453;BMP280;7827;53.594;9.938;2022-10-31T04:27:59;151847.75;;;14.05
15453;BMP280;7827;53.594;9.938;2022-10-31T04:30:28;151850.22;;;14.06
15453;BMP280;7827;53.594;9.938;2022-10-31T04:32:58;151857.75;;;14.09
15453;BMP280;7827;53.594;9.938;2022-10-31T04:35:27;151859.03;;;14.10
15453;BMP280;7827;53.594;9.938;2022-10-31T04:37:55;151859.03;;;14.10
15453;BMP280;7827;53.594;9.938;2022-10-31T04:40:25;151865.34;;;14.12
15453;BMP280;7827;53.594;9.938;2022-10-31T04:43:31;151859.03;;;14.10
15453;BMP280;7827;53.594;9.938;2022-10-31T04:46:01;151860.28;;;14.10
15453;BMP280;7827;53.594;9.938;2022-10-31T04:48:29;151860.28;;;14.10
15453;BMP280;7827;53.594;9.938;2022-10-31T04:51:02;151861.53;;;14.11
15453;BMP280;7827;53.594;9.938;2022-10-31T04:53:31;151852.75;;;14.07
15453;BMP280;7827;53.594;9.938;2022-10-31T04:56:27;151845.16;;;14.04
15453;BMP280;7827;53.594;9.938;2022-10-31T04:58:58;151845.16;;;14.04
15453;BMP280;7827;53.594;9.938;2022-10-31T05:01:30;151845.16;;;14.04
15453;BMP280;7827;53.594;9.938;2022-10-31T05:04:00;151843.94;;;14.04
15453;BMP280;7827;53.594;9.938;2022-10-31T05:06:30;151837.63;;;14.01
15453;BMP280;7827;53.594;9.938;2022-10-31T05:08:58;151835.09;;;14.00
15453;BMP280;7827;53.594;9.938;2022-10-31T05:11:28;151835.09;;;14.00
15453;BMP280;7827;53.594;9.938;2022-10-31T05:14:07;151821.31;;;13.95
15453;BMP280;7827;53.594;9.938;2022-10-31T05:16:58;151825.09;;;13.96
15453;BMP280;7827;53.594;9.938;2022-10-31T05:19:49;151825.09;;;13.96
15453;BMP280;7827;53.594;9.938;2022-10-31T05:22:42;151831.31;;;13.99
15453;BMP280;7827;53.594;9.938;2022-10-31T05:25:12;151830.09;;;13.98
15453;BMP280;7827;53.594;9.938;2022-10-31T05:27:43;151820.03;;;13.94
15453;BMP280;7827;53.594;9.938;2022-10-31T05:30:15;151825.09;;;13.96
15453;BMP280;7827;53.594;9.938;2022-10-31T05:32:46;151838.88;;;14.02
15453;BMP280;7827;53.594;9.938;2022-10-31T05:35:33;151857.75;;;14.09
15453;BMP280;7827;53.594;9.938;2022-10-31T05:38:23;151865.34;;;14.12
15453;BMP280;7827;53.594;9.938;2022-10-31T05:40:54;151866.56;;;14.13
15453;BMP280;7827;53.594;9.938;2022-10-31T05:43:29;151869.09;;;14.13
15453;BMP280;7827;53.594;9.938;2022-10-31T05:45:57;151875.34;;;14.16
15453;BMP280;7827;53.594;9.938;2022-10-31T05:48:44;151881.66;;;14.18
15453;BMP280;7827;53.594;9.938;2022-10-31T05:51:30;151885.41;;;14.20
15453;BMP280;7827;53.594;9.938;2022-10-31T05:53:58;151881.66;;;14.18
15453;BMP280;7827;53.594;9.938;2022-10-31T05:56:27;151881.66;;;14.18
15453;BMP280;7827;53.594;9.938;2022-10-31T05:58:57;151874.09;;;14.15
15453;BMP280;7827;53.594;9.938;2022-10-31T06:01:26;151861.53;;;14.11
15453;BMP280;7827;53.594;9.938;2022-10-31T06:03:56;151847.75;;;14.05
15453;BMP280;7827;53.594;9.938;2022-10-31T06:06:25;151850.22;;;14.06
15453;BMP280;7827;53.594;9.938;2022-10-31T06:08:53;151843.94;;;14.04
15453;BMP280;7827;53.594;9.938;2022-10-31T06:11:22;151842.63;;;14.03
15453;BMP280;7827;53.594;9.938;2022-10-31T06:14:04;151833.84;;;14.00
15453;BMP280;7827;53.594;9.938;2022-10-31T06:16:40;151832.63;;;13.99
15453;BMP280;7827;53.594;9.938;2022-10-31T06:19:31;151832.63;;;13.99
15453;BMP280;7827;53.594;9.938;2022-10-31T06:22:00;151838.88;;;14.02
15453;BMP280;7827;53.594;9.938;2022-10-31T06:24:28;151842.63;;;14.03
15453;BMP280;7827;53.594;9.938;2022-10-31T06:27:17;151837.63;;;14.01
15453;BMP280;7827;53.594;9.938;2022-10-31T06:29:47;151831.31;;;13.99
15453;BMP280;7827;53.594;9.938;2022-10-31T06:32:27;151835.09;;;14.00
15453;BMP280;7827;53.594;9.938;2022-10-31T06:34:56;151840.16;;;14.02
15453;BMP280;7827;53.594;9.938;2022-10-31T06:37:24;151850.22;;;14.06
15453;BMP280;7827;53.594;9.938;2022-10-31T06:39:57;151859.03;;;14.10
15453;BMP280;7827;53.594;9.938;2022-10-31T06:42:25;151850.22;;;14.06
15453;BMP280;7827;53.594;9.938;2022-10-31T06:44:55;151852.75;;;14.07
15453;BMP280;7827;53.594;9.938;2022-10-31T06:47:42;151865.34;;;14.12
15453;BMP280;7827;53.594;9.938;2022-10-31T06:50:35;151872.88;;;14.15
15453;BMP280;7827;53.594;9.938;2022-10-31T06:53:03;151862.81;;;14.11
15453;BMP280;7827;53.594;9.938;2022-10-31T06:55:31;151870.34;;;14.14
15453;BMP280;7827;53.594;9.938;2022-10-31T06:58:01;151865.34;;;14.12
15453;BMP280;7827;53.594;9.938;2022-10-31T07:00:32;151871.59;;;14.14
15453;BMP280;7827;53.594;9.938;2022-10-31T07:03:10;151877.88;;;14.17
15453;BMP280;7827;53.594;9.938;2022-10-31T07:05:39;151889.19;;;14.21
15453;BMP280;7827;53.594;9.938;2022-10-31T07:08:12;151887.94;;;14.21
15453;BMP280;7827;53.594;9.938;2022-10-31T07:10:42;151884.19;;;14.19
15453;BMP280;7827;53.594;9.938;2022-10-31T07:13:13;151887.94;;;14.21
15453;BMP280;7827;53.594;9.938;2022-10-31T07:15:51;151885.41;;;14.20
15453;BMP280;7827;53.594;9.938;2022-10-31T07:18:20;151894.19;;;14.23
15453;BMP280;7827;53.594;9.938;2022-10-31T07:20:48;151890.44;;;14.22
15453;BMP280;7827;53.594;9.938;2022-10-31T07:23:18;151895.47;;;14.24
15453;BMP280;7827;53.594;9.938;2022-10-31T07:25:59;151895.47;;;14.24
15453;BMP280;7827;53.594;9.938;2022-10-31T07:28:38;151886.66;;;14.20
15453;BMP280;7827;53.594;9.938;2022-10-31T07:31:08;151882.88;;;14.19
15453;BMP280;7827;53.594;9.938;2022-10-31T07:33:37;151886.66;;;14.20
15453;BMP280;7827;53.594;9.938;2022-10-31T07:36:24;151840.16;;;14.02
15453;BMP280;7827;53.594;9.938;2022-10-31T07:38:55;151799.97;;;13.86
15453;BMP280;7827;53.594;9.938;2022-10-31T07:41:25;151797.44;;;13.85
15453;BMP280;7827;53.594;9.938;2022-10-31T07:43:53;151804.97;;;13.88
15453;BMP280;7827;53.594;9.938;2022-10-31T07:46:43;151796.19;;;13.85
15453;BMP280;7827;53.594;9.938;2022-10-31T07:49:29;151804.97;;;13.88
15453;BMP280;7827;53.594;9.938;2022-10-31T07:52:18;151799.97;;;13.86
15453;BMP280;7827;53.594;9.938;2022-10-31T07:55:06;151802.47;;;13.87
15453;BMP280;7827;53.594;9.938;2022-10-31T07:57:36;151806.25;;;13.89
15453;BMP280;7827;53.594;9.938;2022-10-31T08:00:08;151810.03;;;13.90
15453;BMP280;7827;53.594;9.938;2022-10-31T08:02:44;151813.78;;;13.92
15453;BMP280;7827;53.594;9.938;2022-10-31T08:05:47;151821.31;;;13.95
15453;BMP280;7827;53.594;9.938;2022-10-31T08:08:35;151825.09;;;13.96
15453;BMP280;7827;53.594;9.938;2022-10-31T08:11:06;151820.03;;;13.94
15453;BMP280;7827;53.594;9.938;2022-10-31T08:13:34;151830.09;;;13.98
15453;BMP280;7827;53.594;9.938;2022-10-31T08:16:03;151843.94;;;14.04
15453;BMP280;7827;53.594;9.938;2022-10-31T08:18:36;151862.81;;;14.11
15453;BMP280;7827;53.594;9.938;2022-10-31T08:21:08;151870.34;;;14.14
15453;BMP280;7827;53.594;9.938;2022-10-31T08:23:37;151861.53;;;14.11
15453;BMP280;7827;53.594;9.938;2022-10-31T08:26:07;151845.16;;;14.04
15453;BMP280;7827;53.594;9.938;2022-10-31T08:28:35;151837.63;;;14.01
15453;BMP280;7827;53.594;9.938;2022-10-31T08:31:03;151841.41;;;14.03
15453;BMP280;7827;53.594;9.938;2022-10-31T08:33:39;151847.75;;;14.05
15453;BMP280;7827;53.594;9.938;2022-10-31T08:36:27;151862.81;;;14.11
15453;BMP280;7827;53.594;9.938;2022-10-31T08:39:02;151872.88;;;14.15
15453;BMP280;7827;53.594;9.938;2022-10-31T08:41:30;151877.88;;;14.17
15453;BMP280;7827;53.594;9.938;2022-10-31T08:44:00;151870.34;;;14.14
15453;BMP280;7827;53.594;9.938;2022-10-31T08:46:28;151885.41;;;14.20
15453;BMP280;7827;53.594;9.938;2022-10-31T08:48:57;151882.88;;;14.19
15453;BMP280;7827;53.594;9.938;2022-10-31T08:51:26;151906.78;;;14.28
15453;BMP280;7827;53.594;9.938;2022-10-31T08:53:55;151909.25;;;14.29
15453;BMP280;7827;53.594;9.938;2022-10-31T08:56:32;151915.56;;;14.32
15453;BMP280;7827;53.594;9.938;2022-10-31T08:59:04;151921.84;;;14.34
15453;BMP280;7827;53.594;9.938;2022-10-31T09:01:55;151946.94;;;14.44
15453;BMP280;7827;53.594;9.938;2022-10-31T09:04:25;151954.47;;;14.47
15453;BMP280;7827;53.594;9.938;2022-10-31T09:06:54;151960.78;;;14.50
15453;BMP280;7827;53.594;9.938;2022-10-31T09:09:42;151973.38;;;14.55
15453;BMP280;7827;53.594;9.938;2022-10-31T09:12:10;151985.91;;;14.60
15453;BMP280;7827;53.594;9.938;2022-10-31T09:14:57;151990.94;;;14.61
15453;BMP280;7827;53.594;9.938;2022-10-31T09:17:49;151985.91;;;14.60
15453;BMP280;7827;53.594;9.938;2022-10-31T09:20:34;151965.84;;;14.52
15453;BMP280;7827;53.594;9.938;2022-10-31T09:23:05;151980.91;;;14.58
15453;BMP280;7827;53.594;9.938;2022-10-31T09:25:37;151992.22;;;14.62
15453;BMP280;7827;53.594;9.938;2022-10-31T09:28:24;152011.06;;;14.69
15453;BMP280;7827;53.594;9.938;2022-10-31T09:30:54;152011.06;;;14.69
15453;BMP280;7827;53.594;9.938;2022-10-31T09:33:43;152008.53;;;14.68
15453;BMP280;7827;53.594;9.938;2022-10-31T09:36:37;151998.47;;;14.64
15453;BMP280;7827;53.594;9.938;2022-10-31T09:39:18;151996.00;;;14.63
15453;BMP280;7827;53.594;9.938;2022-10-31T09:45:07;152041.22;;;14.81
15453;BMP280;7827;53.594;9.938;2022-10-31T09:48:00;152039.94;;;14.81
15453;BMP280;7827;53.594;9.938;2022-10-31T09:50:39;152053.75;;;14.86
15453;BMP280;7827;53.594;9.938;2022-10-31T09:53:53;152018.59;;;14.72
15453;BMP280;7827;53.594;9.938;2022-10-31T09:56:26;152008.53;;;14.68
15453;BMP280;7827;53.594;9.938;2022-10-31T09:59:02;152018.59;;;14.72
15453;BMP280;7827;53.594;9.938;2022-10-31T10:01:41;152031.16;;;14.77
15453;BMP280;7827;53.594;9.938;2022-10-31T10:04:32;152038.69;;;14.80
15453;BMP280;7827;53.594;9.938;2022-10-31T10:07:22;152011.06;;;14.69
15453;BMP280;7827;53.594;9.938;2022-10-31T10:10:28;152003.53;;;14.66
15453;BMP280;7827;53.594;9.938;2022-10-31T10:13:40;152001.00;;;14.65
15453;BMP280;7827;53.594;9.938;2022-10-31T10:16:34;152003.53;;;14.66
15453;BMP280;7827;53.594;9.938;2022-10-31T10:19:21;152003.53;;;14.66
15453;BMP280;7827;53.594;9.938;2022-10-31T10:21:59;152006.00;;;14.67
15453;BMP280;7827;53.594;9.938;2022-10-31T10:24:50;152011.06;;;14.69
15453;BMP280;7827;53.594;9.938;2022-10-31T10:27:37;152011.06;;;14.69
15453;BMP280;7827;53.594;9.938;2022-10-31T10:30:15;152011.06;;;14.69
15453;BMP280;7827;53.594;9.938;2022-10-31T10:32:48;152022.38;;;14.74
15453;BMP280;7827;53.594;9.938;2022-10-31T10:35:24;152023.59;;;14.74
15453;BMP280;7827;53.594;9.938;2022-10-31T10:37:58;152003.53;;;14.66
15453;BMP280;7827;53.594;9.938;2022-10-31T10:40:29;151998.47;;;14.64
15453;BMP280;7827;53.594;9.938;2022-10-31T10:43:18;152008.53;;;14.68
15453;BMP280;7827;53.594;9.938;2022-10-31T10:45:53;152023.59;;;14.74
15453;BMP280;7827;53.594;9.938;2022-10-31T10:48:49;152031.16;;;14.77
15453;BMP280;7827;53.594;9.938;2022-10-31T10:51:23;152029.91;;;14.77
15453;BMP280;7827;53.594;9.938;2022-10-31T10:54:32;152041.22;;;14.81
15453;BMP280;7827;53.594;9.938;2022-10-31T10:57:13;152018.59;;;14.72
15453;BMP280;7827;53.594;9.938;2022-10-31T10:59:48;152032.38;;;14.78
15453;BMP280;7827;53.594;9.938;2022-10-31T11:02:22;152021.06;;;14.73
15453;BMP280;7827;53.594;9.938;2022-10-31T11:04:54;152042.44;;;14.82
15453;BMP280;7827;53.594;9.938;2022-10-31T11:07:23;152073.91;;;14.94
15453;BMP280;7827;53.594;9.938;2022-10-31T11:10:04;152091.47;;;15.01
15453;BMP280;7827;53.594;9.938;2022-10-31T11:12:41;152114.06;;;15.10
15453;BMP280;7827;53.594;9.938;2022-10-31T11:15:20;152107.84;;;15.08
15453;BMP280;7827;53.594;9.938;2022-10-31T11:17:51;152114.06;;;15.10
15453;BMP280;7827;53.594;9.938;2022-10-31T11:20:31;152121.63;;;15.13
15453;BMP280;7827;53.594;9.938;2022-10-31T11:23:16;152105.28;;;15.07
15453;BMP280;7827;53.594;9.938;2022-10-31T11:25:51;152104.06;;;15.06
15453;BMP280;7827;53.594;9.938;2022-10-31T11:28:19;152106.53;;;15.07
15453;BMP280;7827;53.594;9.938;2022-10-31T11:30:53;152124.16;;;15.14
15453;BMP280;7827;53.594;9.938;2022-10-31T11:33:29;152146.81;;;15.23
15453;BMP280;7827;53.594;9.938;2022-10-31T11:36:01;152159.41;;;15.28
15453;BMP280;7827;53.594;9.938;2022-10-31T11:38:38;152160.66;;;15.28
15453;BMP280;7827;53.594;9.938;2022-10-31T11:41:14;152144.34;;;15.22
15453;BMP280;7827;53.594;9.938;2022-10-31T11:43:49;152161.91;;;15.29
15453;BMP280;7827;53.594;9.938;2022-10-31T11:46:25;152179.50;;;15.36
15453;BMP280;7827;53.594;9.938;2022-10-31T11:48:56;152189.59;;;15.40
15453;BMP280;7827;53.594;9.938;2022-10-31T11:51:29;152210.91;;;15.48
15453;BMP280;7827;53.594;9.938;2022-10-31T11:54:01;152209.69;;;15.48
15453;BMP280;7827;53.594;9.938;2022-10-31T11:56:38;152218.47;;;15.51
15453;BMP280;7827;53.594;9.938;2022-10-31T11:59:24;152229.78;;;15.56
15453;BMP280;7827;53.594;9.938;2022-10-31T12:01:57;152239.84;;;15.59
15453;BMP280;7827;53.594;9.938;2022-10-31T12:04:38;152234.84;;;15.58
15453;BMP280;7827;53.594;9.938;2022-10-31T12:07:08;152244.91;;;15.61
15453;BMP280;7827;53.594;9.938;2022-10-31T12:09:38;152260.00;;;15.67
15453;BMP280;7827;53.594;9.938;2022-10-31T12:12:34;152252.44;;;15.64
15453;BMP280;7827;53.594;9.938;2022-10-31T12:15:30;152234.84;;;15.58
15453;BMP280;7827;53.594;9.938;2022-10-31T12:18:35;152224.75;;;15.54
15453;BMP280;7827;53.594;9.938;2022-10-31T12:21:22;152236.09;;;15.58
15453;BMP280;7827;53.594;9.938;2022-10-31T12:24:07;152241.13;;;15.60
15453;BMP280;7827;53.594;9.938;2022-10-31T12:26:47;152247.41;;;15.62
15453;BMP280;7827;53.594;9.938;2022-10-31T12:29:35;152229.78;;;15.56
15453;BMP280;7827;53.594;9.938;2022-10-31T12:32:27;152229.78;;;15.56
15453;BMP280;7827;53.594;9.938;2022-10-31T12:35:26;152222.22;;;15.53
15453;BMP280;7827;53.594;9.938;2022-10-31T12:38:31;152236.09;;;15.58
15453;BMP280;7827;53.594;9.938;2022-10-31T12:41:23;152239.84;;;15.59
15453;BMP280;7827;53.594;9.938;2022-10-31T12:44:02;152239.84;;;15.59
15453;BMP280;7827;53.594;9.938;2022-10-31T12:46:55;152241.13;;;15.60
15453;BMP280;7827;53.594;9.938;2022-10-31T12:49:46;152234.84;;;15.58
15453;BMP280;7827;53.594;9.938;2022-10-31T12:52:35;152227.28;;;15.55
15453;BMP280;7827;53.594;9.938;2022-10-31T12:55:20;152213.44;;;15.49
15453;BMP280;7827;53.594;9.938;2022-10-31T12:57:58;152170.72;;;15.32
15453;BMP280;7827;53.594;9.938;2022-10-31T13:00:32;152148.09;;;15.23
15453;BMP280;7827;53.594;9.938;2022-10-31T13:03:20;152136.75;;;15.19
15453;BMP280;7827;53.594;9.938;2022-10-31T13:05:57;152124.16;;;15.14
15453;BMP280;7827;53.594;9.938;2022-10-31T13:08:35;152131.69;;;15.17
15453;BMP280;7827;53.594;9.938;2022-10-31T13:11:10;152126.69;;;15.15
15453;BMP280;7827;53.594;9.938;2022-10-31T13:13:44;152134.28;;;15.18
15453;BMP280;7827;53.594;9.938;2022-10-31T13:16:16;152143.03;;;15.21
15453;BMP280;7827;53.594;9.938;2022-10-31T13:18:55;152156.88;;;15.27
15453;BMP280;7827;53.594;9.938;2022-10-31T13:21:30;152169.44;;;15.32
15453;BMP280;7827;53.594;9.938;2022-10-31T13:24:04;152174.50;;;15.34
15453;BMP280;7827;53.594;9.938;2022-10-31T13:26:39;152161.91;;;15.29
15453;BMP280;7827;53.594;9.938;2022-10-31T13:29:18;152151.88;;;15.25
15453;BMP280;7827;53.594;9.938;2022-10-31T13:31:50;152163.19;;;15.29
15453;BMP280;7827;53.594;9.938;2022-10-31T13:34:25;152170.72;;;15.32
15453;BMP280;7827;53.594;9.938;2022-10-31T13:37:03;152175.75;;;15.34
15453;BMP280;7827;53.594;9.938;2022-10-31T13:39:52;152184.53;;;15.38
15453;BMP280;7827;53.594;9.938;2022-10-31T13:42:36;152159.41;;;15.28
15453;BMP280;7827;53.594;9.938;2022-10-31T13:45:13;152171.97;;;15.33
15453;BMP280;7827;53.594;9.938;2022-10-31T13:47:42;152185.81;;;15.38
15453;BMP280;7827;53.594;9.938;2022-10-31T13:50:22;152171.97;;;15.33
15453;BMP280;7827;53.594;9.938;2022-10-31T13:52:51;152121.63;;;15.13
15453;BMP280;7827;53.594;9.938;2022-10-31T13:55:39;152117.84;;;15.11
15453;BMP280;7827;53.594;9.938;2022-10-31T13:58:25;152121.63;;;15.13
15453;BMP280;7827;53.594;9.938;2022-10-31T14:01:16;152134.28;;;15.18
15453;BMP280;7827;53.594;9.938;2022-10-31T14:03:47;152129.16;;;15.16
15453;BMP280;7827;53.594;9.938;2022-10-31T14:06:47;152104.06;;;15.06
15453;BMP280;7827;53.594;9.938;2022-10-31T14:09:26;152100.28;;;15.05
15453;BMP280;7827;53.594;9.938;2022-10-31T14:12:01;152094.00;;;15.02
15453;BMP280;7827;53.594;9.938;2022-10-31T14:14:42;152119.13;;;15.12
15453;BMP280;7827;53.594;9.938;2022-10-31T14:17:21;152130.44;;;15.16
15453;BMP280;7827;53.594;9.938;2022-10-31T14:20:00;152120.38;;;15.12
15453;BMP280;7827;53.594;9.938;2022-10-31T14:22:31;152129.16;;;15.16
15453;BMP280;7827;53.594;9.938;2022-10-31T14:25:26;152140.56;;;15.20
15453;BMP280;7827;53.594;9.938;2022-10-31T14:27:58;152141.81;;;15.21
15453;BMP280;7827;53.594;9.938;2022-10-31T14:30:29;152132.97;;;15.17
15453;BMP280;7827;53.594;9.938;2022-10-31T14:33:01;152144.34;;;15.22
15453;BMP280;7827;53.594;9.938;2022-10-31T14:35:53;152131.69;;;15.17
15453;BMP280;7827;53.594;9.938;2022-10-31T14:38:43;152122.91;;;15.13
15453;BMP280;7827;53.594;9.938;2022-10-31T14:41:45;152114.06;;;15.10
15453;BMP280;7827;53.594;9.938;2022-10-31T14:45:01;152088.97;;;15.00
15453;BMP280;7827;53.594;9.938;2022-10-31T14:47:45;152082.69;;;14.98
15453;BMP280;7827;53.594;9.938;2022-10-31T14:50:29;152096.50;;;15.03
15453;BMP280;7827;53.594;9.938;2022-10-31T14:53:04;152086.44;;;14.99
15453;BMP280;7827;53.594;9.938;2022-10-31T14:55:35;152073.91;;;14.94
15453;BMP280;7827;53.594;9.938;2022-10-31T14:58:08;152073.91;;;14.94
15453;BMP280;7827;53.594;9.938;2022-10-31T15:00:37;152080.16;;;14.97
15453;BMP280;7827;53.594;9.938;2022-10-31T15:03:15;152082.69;;;14.98
15453;BMP280;7827;53.594;9.938;2022-10-31T15:05:49;152092.75;;;15.02
15453;BMP280;7827;53.594;9.938;2022-10-31T15:08:32;152086.44;;;14.99
15453;BMP280;7827;53.594;9.938;2022-10-31T15:11:10;152076.38;;;14.95